Time;durP1;ratioP1;P1;durP2;ratioP2;P2;SDS_P1;SDS_P2;PMS_P1;PMS_P2;Temp;Humidity;BMP_temperature;BMP_pressure;BME280_temperature;BME280_humidity;BME280_pressure;Samples;Min_cycle;Max_cycle;Signal;HPM_P1;HPM_P2
2022/03/04 00:01:34;;;;;;;;;;;22.50;44.30;;;;;;5074203;28;19932;-43
2022/03/04 00:04:01;;;;;;;;;;;22.50;43.70;;;;;;5076092;28;19931;-43
2022/03/04 00:06:28;;;;;;;;;;;22.50;43.70;;;;;;5076329;28;19947;-43
2022/03/04 00:08:55;;;;;;;;;;;22.50;43.70;;;;;;5075853;28;20041;-45
2022/03/04 00:11:22;;;;;;;;;;;22.50;43.70;;;;;;5075501;28;19924;-45
2022/03/04 00:13:49;;;;;;;;;;;22.50;43.70;;;;;;5075823;28;19972;-43
2022/03/04 00:16:16;;;;;;;;;;;22.50;43.70;;;;;;5075113;28;20369;-48
2022/03/04 00:18:43;;;;;;;;;;;22.50;43.70;;;;;;5076074;28;19924;-44
2022/03/04 00:21:10;;;;;;;;;;;22.40;43.60;;;;;;5075538;28;20350;-46
2022/03/04 00:23:37;;;;;;;;;;;22.50;43.70;;;;;;5075736;28;20381;-48
2022/03/04 00:26:04;;;;;;;;;;;22.40;43.60;;;;;;5075268;28;19979;-47
2022/03/04 00:28:31;;;;;;;;;;;22.40;43.60;;;;;;5075628;28;19928;-45
2022/03/04 00:30:59;;;;;;;;;;;22.40;43.60;;;;;;5076751;28;19928;-46
2022/03/04 00:33:26;;;;;;;;;;;22.40;43.60;;;;;;5074779;28;19978;-44
2022/03/04 00:35:54;;;;;;;;;;;22.40;43.60;;;;;;5075792;28;20319;-47
2022/03/04 00:38:21;;;;;;;;;;;22.40;43.60;;;;;;5075349;28;19929;-45
2022/03/04 00:40:48;;;;;;;;;;;22.40;43.60;;;;;;5071649;28;20284;-45
2022/03/04 00:43:17;;;;;;;;;;;22.40;43.60;;;;;;5055692;28;20299;-43
2022/03/04 00:45:44;;;;;;;;;;;22.40;43.60;;;;;;5055263;28;19925;-43
2022/03/04 00:48:12;;;;;;;;;;;22.40;43.60;;;;;;5070513;28;20007;-48
2022/03/04 00:50:39;;;;;;;;;;;22.40;43.60;;;;;;5075258;28;20273;-45
2022/03/04 00:53:06;;;;;;;;;;;22.40;43.60;;;;;;5075248;28;20338;-47
2022/03/04 00:55:37;;;;;;;;;;;22.40;43.60;;;;;;5074372;28;19925;-47
2022/03/04 00:58:07;;;;;;;;;;;22.40;43.60;;;;;;5055126;28;19929;-45
2022/03/04 01:00:35;;;;;;;;;;;22.40;43.60;;;;;;5055363;28;20024;-46
2022/03/04 01:03:03;;;;;;;;;;;22.40;43.60;;;;;;5067354;28;19924;-45
2022/03/04 01:05:30;;;;;;;;;;;22.40;43.60;;;;;;5075227;28;20303;-46
2022/03/04 01:07:57;;;;;;;;;;;22.40;43.60;;;;;;5074879;28;19932;-44
2022/03/04 01:10:24;;;;;;;;;;;22.40;43.60;;;;;;5074709;28;19978;-43
2022/03/04 01:12:51;;;;;;;;;;;22.40;43.60;;;;;;5073784;28;20425;-45
2022/03/04 01:15:18;;;;;;;;;;;22.40;43.60;;;;;;5075465;28;19928;-47
2022/03/04 01:17:45;;;;;;;;;;;22.40;43.60;;;;;;5073842;28;19978;-53
2022/03/04 01:20:12;;;;;;;;;;;22.40;43.60;;;;;;5074432;28;19928;-49
2022/03/04 01:22:39;;;;;;;;;;;22.40;43.60;;;;;;5074408;28;19924;-47
2022/03/04 01:25:07;;;;;;;;;;;22.30;43.50;;;;;;5074554;28;20434;-50
2022/03/04 01:27:34;;;;;;;;;;;22.30;43.50;;;;;;5073738;28;19925;-48
2022/03/04 01:30:02;;;;;;;;;;;22.30;43.50;;;;;;5074418;28;19932;-49
2022/03/04 01:32:29;;;;;;;;;;;22.30;43.50;;;;;;5073618;28;19924;-46
2022/03/04 01:34:56;;;;;;;;;;;22.30;43.60;;;;;;5074266;28;20289;-50
2022/03/04 01:37:23;;;;;;;;;;;22.30;43.60;;;;;;5074300;28;19928;-48
2022/03/04 01:39:50;;;;;;;;;;;22.30;43.60;;;;;;5074126;28;20393;-49
2022/03/04 01:42:17;;;;;;;;;;;22.30;43.60;;;;;;5073457;28;19924;-45
2022/03/04 01:44:45;;;;;;;;;;;22.30;43.50;;;;;;5074457;28;19983;-44
2022/03/04 01:47:12;;;;;;;;;;;22.30;43.60;;;;;;5073630;28;20269;-45
2022/03/04 01:49:40;;;;;;;;;;;22.30;43.60;;;;;;5074028;28;19924;-43
2022/03/04 01:52:07;;;;;;;;;;;22.30;43.60;;;;;;5074187;28;19966;-43
2022/03/04 01:54:35;;;;;;;;;;;22.30;44.20;;;;;;5074192;28;19928;-44
2022/03/04 01:57:02;;;;;;;;;;;22.30;43.60;;;;;;5073496;28;19924;-44
2022/03/04 01:59:29;;;;;;;;;;;22.30;43.60;;;;;;5074185;28;19924;-44
2022/03/04 02:01:56;;;;;;;;;;;22.30;43.60;;;;;;5074123;28;19924;-42
2022/03/04 02:04:24;;;;;;;;;;;22.30;43.60;;;;;;5073072;28;20379;-45
2022/03/04 02:06:51;;;;;;;;;;;22.30;43.60;;;;;;5073740;28;19955;-47
2022/03/04 02:09:18;;;;;;;;;;;22.30;43.50;;;;;;5073953;28;19931;-45
2022/03/04 02:11:45;;;;;;;;;;;22.20;43.50;;;;;;5072986;28;19940;-45
2022/03/04 02:14:13;;;;;;;;;;;22.30;43.50;;;;;;5073941;28;19974;-46
2022/03/04 02:16:40;;;;;;;;;;;22.20;43.50;;;;;;5073952;28;19928;-45
2022/03/04 02:19:07;;;;;;;;;;;22.20;43.50;;;;;;5072903;28;19925;-44
2022/03/04 02:21:34;;;;;;;;;;;22.30;43.50;;;;;;5073275;28;19970;-48
2022/03/04 02:24:01;;;;;;;;;;;22.20;43.40;;;;;;5072968;28;19979;-45
2022/03/04 02:26:28;;;;;;;;;;;22.20;43.40;;;;;;5073088;28;19978;-46
2022/03/04 02:28:55;;;;;;;;;;;22.20;43.40;;;;;;5073607;28;19928;-48
2022/03/04 02:31:22;;;;;;;;;;;22.20;43.50;;;;;;5073515;28;19970;-46
2022/03/04 02:33:50;;;;;;;;;;;22.20;43.40;;;;;;5072612;28;19978;-48
2022/03/04 02:36:17;;;;;;;;;;;22.20;43.40;;;;;;5073433;28;19924;-46
2022/03/04 02:38:44;;;;;;;;;;;22.20;43.40;;;;;;5073334;28;19928;-44
2022/03/04 02:41:11;;;;;;;;;;;22.20;43.40;;;;;;5073394;28;19924;-47
2022/03/04 02:43:38;;;;;;;;;;;22.20;43.50;;;;;;5072652;28;19951;-48
2022/03/04 02:46:05;;;;;;;;;;;22.20;43.50;;;;;;5073351;28;19924;-44
2022/03/04 02:48:32;;;;;;;;;;;22.20;43.40;;;;;;5072892;28;20011;-47
2022/03/04 02:51:00;;;;;;;;;;;22.20;43.50;;;;;;5073367;28;19929;-44
2022/03/04 02:53:27;;;;;;;;;;;22.20;43.40;;;;;;5073230;28;19963;-43
2022/03/04 02:55:53;;;;;;;;;;;22.20;43.50;;;;;;5073279;28;19963;-48
2022/03/04 02:58:20;;;;;;;;;;;22.20;43.40;;;;;;5072667;28;19935;-51
2022/03/04 03:00:48;;;;;;;;;;;22.20;43.50;;;;;;5073495;28;19925;-49
2022/03/04 03:03:15;;;;;;;;;;;22.20;43.40;;;;;;5072731;28;19930;-51
2022/03/04 03:05:42;;;;;;;;;;;22.20;43.50;;;;;;5073478;28;20346;-48
2022/03/04 03:08:11;;;;;;;;;;;22.20;43.50;;;;;;5073012;28;19931;-46
2022/03/04 03:10:38;;;;;;;;;;;22.20;43.50;;;;;;5073408;28;20398;-46
2022/03/04 03:13:05;;;;;;;;;;;22.20;43.50;;;;;;5072381;28;19931;-43
2022/03/04 03:15:32;;;;;;;;;;;22.20;43.50;;;;;;5073000;28;20380;-47
2022/03/04 03:17:59;;;;;;;;;;;22.10;43.40;;;;;;5072434;28;19978;-49
2022/03/04 03:20:26;;;;;;;;;;;22.10;43.40;;;;;;5072812;28;19970;-48
2022/03/04 03:22:52;;;;;;;;;;;22.10;43.40;;;;;;5072856;28;19939;-45
2022/03/04 03:25:19;;;;;;;;;;;22.10;43.40;;;;;;5073009;28;19955;-45
2022/03/04 03:27:46;;;;;;;;;;;22.10;43.40;;;;;;5049943;28;19925;-44
2022/03/04 03:30:13;;;;;;;;;;;22.10;43.40;;;;;;5053200;28;19928;-43
2022/03/04 03:32:41;;;;;;;;;;;22.10;43.40;;;;;;5052871;28;19935;-45
2022/03/04 03:35:08;;;;;;;;;;;22.10;43.40;;;;;;5070225;28;19924;-42
2022/03/04 03:37:36;;;;;;;;;;;22.10;43.50;;;;;;5076900;28;19924;-45
2022/03/04 03:40:07;;;;;;;;;;;22.10;43.40;;;;;;5076403;28;19925;-43
2022/03/04 03:42:34;;;;;;;;;;;22.10;43.40;;;;;;5075693;28;19925;-47
2022/03/04 03:45:02;;;;;;;;;;;22.10;43.40;;;;;;5076738;28;19931;-46
2022/03/04 03:47:29;;;;;;;;;;;22.10;43.40;;;;;;5076438;28;19924;-44
2022/03/04 03:49:56;;;;;;;;;;;22.10;43.40;;;;;;5058458;28;19925;-42
2022/03/04 03:52:23;;;;;;;;;;;22.10;43.40;;;;;;5076461;28;19959;-45
2022/03/04 03:54:50;;;;;;;;;;;22.10;43.40;;;;;;5058745;28;20375;-43
2022/03/04 03:57:17;;;;;;;;;;;22.10;43.40;;;;;;5076175;28;20334;-44
2022/03/04 03:59:44;;;;;;;;;;;22.10;44.00;;;;;;5075491;28;19928;-44
2022/03/04 04:02:11;;;;;;;;;;;22.10;43.40;;;;;;5076424;28;19978;-45
2022/03/04 04:04:39;;;;;;;;;;;22.10;43.40;;;;;;5075683;28;19925;-45
2022/03/04 04:07:07;;;;;;;;;;;22.10;43.50;;;;;;5076052;28;19985;-43
2022/03/04 04:09:34;;;;;;;;;;;22.10;43.40;;;;;;5075905;28;19924;-44
2022/03/04 04:12:01;;;;;;;;;;;22.10;43.40;;;;;;5076318;28;19928;-43
2022/03/04 04:14:28;;;;;;;;;;;22.10;43.40;;;;;;5075432;28;20078;-45
2022/03/04 04:16:56;;;;;;;;;;;22.10;43.40;;;;;;5076732;28;19999;-44
2022/03/04 04:19:23;;;;;;;;;;;22.10;43.40;;;;;;5075103;28;19950;-43
2022/03/04 04:21:51;;;;;;;;;;;22.00;43.30;;;;;;5075485;28;19968;-42
2022/03/04 04:24:18;;;;;;;;;;;22.10;43.40;;;;;;5075715;28;19924;-45
2022/03/04 04:26:45;;;;;;;;;;;22.00;43.30;;;;;;5076015;28;20007;-45
2022/03/04 04:29:12;;;;;;;;;;;22.00;43.30;;;;;;5075146;28;19929;-50
2022/03/04 04:31:40;;;;;;;;;;;22.00;43.30;;;;;;5075890;28;19931;-49
2022/03/04 04:34:07;;;;;;;;;;;22.00;43.30;;;;;;5074794;28;20019;-52
2022/03/04 04:36:34;;;;;;;;;;;22.00;43.30;;;;;;5075887;28;19967;-51
2022/03/04 04:39:02;;;;;;;;;;;22.00;43.30;;;;;;5075716;28;19928;-49
2022/03/04 04:41:29;;;;;;;;;;;22.00;43.30;;;;;;5075766;28;19974;-46
2022/03/04 04:43:56;;;;;;;;;;;22.00;43.30;;;;;;5057300;28;20046;-52
2022/03/04 04:46:23;;;;;;;;;;;22.00;43.30;;;;;;5075417;28;19925;-50
2022/03/04 04:48:50;;;;;;;;;;;22.00;43.30;;;;;;5075169;28;19925;-49
2022/03/04 04:51:17;;;;;;;;;;;22.00;43.30;;;;;;5074969;28;19924;-49
2022/03/04 04:53:44;;;;;;;;;;;22.00;43.30;;;;;;5075506;28;19924;-48
2022/03/04 04:56:11;;;;;;;;;;;22.00;43.30;;;;;;5075424;28;19928;-49
2022/03/04 04:58:38;;;;;;;;;;;22.00;43.30;;;;;;5074379;28;20364;-46
2022/03/04 05:01:05;;;;;;;;;;;22.00;43.30;;;;;;5075093;28;20004;-47
2022/03/04 05:03:32;;;;;;;;;;;22.00;43.30;;;;;;5075561;28;20029;-44
2022/03/04 05:05:59;;;;;;;;;;;22.00;43.30;;;;;;5074533;28;19967;-44
2022/03/04 05:08:27;;;;;;;;;;;22.00;43.30;;;;;;5074799;28;20422;-47
2022/03/04 05:10:58;;;;;;;;;;;22.00;43.30;;;;;;5075146;28;19928;-44
2022/03/04 05:13:25;;;;;;;;;;;22.00;43.30;;;;;;5075021;28;19925;-46
2022/03/04 05:15:52;;;;;;;;;;;22.00;43.30;;;;;;5074833;28;19925;-47
2022/03/04 05:18:19;;;;;;;;;;;22.00;43.30;;;;;;5074682;28;19928;-43
2022/03/04 05:20:46;;;;;;;;;;;22.00;43.20;;;;;;5073947;28;19925;-44
2022/03/04 05:23:58;;;;;;;;;;;22.00;43.30;;;;;;5074421;28;19924;-45
2022/03/04 05:26:00;;;;;;;;;;;22.00;43.30;;;;;;5074592;28;20356;-50
2022/03/04 05:28:27;;;;;;;;;;;22.00;43.30;;;;;;5074795;28;20323;-44
2022/03/04 05:30:54;;;;;;;;;;;22.00;43.30;;;;;;5073698;28;20002;-46
2022/03/04 05:33:22;;;;;;;;;;;21.90;43.20;;;;;;5075506;28;19924;-43
2022/03/04 05:35:49;;;;;;;;;;;22.00;43.30;;;;;;5073525;28;19951;-47
2022/03/04 05:38:16;;;;;;;;;;;21.90;43.20;;;;;;5074504;28;19974;-46
2022/03/04 05:40:42;;;;;;;;;;;21.90;43.20;;;;;;5074574;28;19990;-43
2022/03/04 05:43:09;;;;;;;;;;;21.90;43.20;;;;;;5074211;28;20380;-47
2022/03/04 05:45:36;;;;;;;;;;;21.90;43.20;;;;;;5057793;28;20381;-45
2022/03/04 05:48:04;;;;;;;;;;;21.90;43.20;;;;;;5054450;28;20015;-44
2022/03/04 05:50:31;;;;;;;;;;;21.90;43.20;;;;;;5061796;28;19928;-44
2022/03/04 05:52:58;;;;;;;;;;;21.90;43.20;;;;;;5073843;28;19928;-45
2022/03/04 05:55:25;;;;;;;;;;;21.90;43.20;;;;;;5074270;28;20330;-46
2022/03/04 05:57:52;;;;;;;;;;;21.90;43.20;;;;;;5074135;28;20015;-43
2022/03/04 06:00:19;;;;;;;;;;;21.90;43.20;;;;;;5072520;28;19979;-44
2022/03/04 06:02:45;;;;;;;;;;;21.90;43.20;;;;;;5073872;28;19924;-45
2022/03/04 06:05:13;;;;;;;;;;;21.90;43.10;;;;;;5055458;28;19924;-46
2022/03/04 06:07:39;;;;;;;;;;;21.90;43.20;;;;;;5074078;28;19924;-47
2022/03/04 06:10:07;;;;;;;;;;;21.90;43.20;;;;;;5073583;28;19932;-44
2022/03/04 06:12:33;;;;;;;;;;;21.90;43.10;;;;;;5073724;28;20014;-44
2022/03/04 06:15:01;;;;;;;;;;;21.90;43.10;;;;;;5073190;28;19928;-44
2022/03/04 06:17:28;;;;;;;;;;;21.90;43.10;;;;;;5073662;28;20376;-46
2022/03/04 06:19:55;;;;;;;;;;;21.90;43.10;;;;;;5072555;28;19924;-47
2022/03/04 06:22:22;;;;;;;;;;;21.90;43.10;;;;;;5073762;28;20342;-47
2022/03/04 06:24:49;;;;;;;;;;;21.90;43.10;;;;;;5073531;28;19932;-42
2022/03/04 06:27:16;;;;;;;;;;;21.90;43.10;;;;;;5073818;28;19924;-44
2022/03/04 06:29:43;;;;;;;;;;;21.90;43.10;;;;;;5072729;28;19978;-46
2022/03/04 06:32:10;;;;;;;;;;;21.90;43.00;;;;;;5073421;28;19928;-44
2022/03/04 06:34:37;;;;;;;;;;;21.90;43.00;;;;;;5073786;28;20350;-44
2022/03/04 06:37:04;;;;;;;;;;;21.90;43.00;;;;;;5072649;28;19925;-44
2022/03/04 06:39:31;;;;;;;;;;;21.90;43.00;;;;;;5073264;28;19928;-44
2022/03/04 06:42:03;;;;;;;;;;;22.00;43.10;;;;;;5074256;28;19925;-45
2022/03/04 06:44:30;;;;;;;;;;;22.00;43.00;;;;;;5072669;28;20085;-45
2022/03/04 06:46:57;;;;;;;;;;;22.00;43.00;;;;;;5073665;28;19928;-43
2022/03/04 06:49:24;;;;;;;;;;;22.00;43.00;;;;;;5073588;28;20273;-46
2022/03/04 06:51:51;;;;;;;;;;;22.00;43.00;;;;;;5072572;28;20260;-43
2022/03/04 06:54:18;;;;;;;;;;;22.00;43.00;;;;;;5073531;28;19924;-44
2022/03/04 06:56:45;;;;;;;;;;;22.00;43.00;;;;;;5073121;28;20014;-44
2022/03/04 06:59:12;;;;;;;;;;;22.00;42.90;;;;;;5073216;28;19978;-44
2022/03/04 07:01:39;;;;;;;;;;;22.00;42.90;;;;;;5055735;28;19979;-45
2022/03/04 07:04:07;;;;;;;;;;;22.00;42.90;;;;;;5053146;28;20027;-45
2022/03/04 07:06:34;;;;;;;;;;;22.00;42.80;;;;;;5063513;28;19924;-45
2022/03/04 07:09:01;;;;;;;;;;;22.00;42.80;;;;;;5073014;28;20384;-46
2022/03/04 07:11:28;;;;;;;;;;;22.00;42.80;;;;;;5076186;28;19924;-44
2022/03/04 07:13:55;;;;;;;;;;;22.00;42.80;;;;;;5077350;28;19929;-43
2022/03/04 07:16:22;;;;;;;;;;;22.00;42.80;;;;;;5075557;28;19924;-44
2022/03/04 07:18:49;;;;;;;;;;;22.00;42.70;;;;;;5077207;28;19932;-44
2022/03/04 07:21:16;;;;;;;;;;;22.00;42.70;;;;;;5075751;28;20361;-45
2022/03/04 07:23:43;;;;;;;;;;;22.10;42.80;;;;;;5076919;28;19925;-48
2022/03/04 07:26:12;;;;;;;;;;;22.10;42.70;;;;;;5076817;28;19970;-46
2022/03/04 07:28:39;;;;;;;;;;;22.10;42.70;;;;;;5076896;28;19994;-46
2022/03/04 07:31:06;;;;;;;;;;;22.10;42.70;;;;;;5075589;28;19978;-46
2022/03/04 07:33:33;;;;;;;;;;;22.10;42.60;;;;;;5076390;28;19924;-46
2022/03/04 07:36:01;;;;;;;;;;;22.10;42.60;;;;;;5075961;28;19979;-50
2022/03/04 07:38:28;;;;;;;;;;;22.10;42.60;;;;;;5076499;28;20304;-49
2022/03/04 07:40:58;;;;;;;;;;;22.10;42.60;;;;;;5076557;28;19931;-45
2022/03/04 07:43:25;;;;;;;;;;;22.10;42.60;;;;;;5076439;28;20380;-53
2022/03/04 07:45:53;;;;;;;;;;;22.10;42.60;;;;;;5075758;28;19951;-50
2022/03/04 07:48:20;;;;;;;;;;;22.10;42.50;;;;;;5076424;28;19940;-51
2022/03/04 07:50:47;;;;;;;;;;;22.10;42.50;;;;;;5075843;28;20438;-46
2022/03/04 07:53:14;;;;;;;;;;;22.10;42.50;;;;;;5075998;28;19978;-50
2022/03/04 07:55:41;;;;;;;;;;;22.10;42.50;;;;;;5076182;28;19924;-49
2022/03/04 07:58:07;;;;;;;;;;;22.10;42.50;;;;;;5076543;28;19924;-47
2022/03/04 08:00:34;;;;;;;;;;;22.10;42.50;;;;;;5075734;28;19981;-46
2022/03/04 08:03:01;;;;;;;;;;;22.10;42.50;;;;;;5076446;28;19935;-51
2022/03/04 08:05:29;;;;;;;;;;;22.10;42.40;;;;;;5076130;28;19933;-45
2022/03/04 08:07:56;;;;;;;;;;;22.10;42.40;;;;;;5075102;28;19959;-49
2022/03/04 08:10:23;;;;;;;;;;;22.10;42.40;;;;;;5076225;28;19924;-46
2022/03/04 08:12:50;;;;;;;;;;;22.10;42.40;;;;;;5076278;28;19931;-49
2022/03/04 08:15:18;;;;;;;;;;;22.10;42.40;;;;;;5075842;28;19972;-47
2022/03/04 08:17:45;;;;;;;;;;;22.10;42.40;;;;;;5075507;28;19924;-46
2022/03/04 08:20:12;;;;;;;;;;;22.10;42.30;;;;;;5075698;28;20437;-46
2022/03/04 08:22:39;;;;;;;;;;;22.10;42.30;;;;;;5074221;28;20019;-45
2022/03/04 08:25:06;;;;;;;;;;;22.10;42.30;;;;;;5075785;28;19979;-48
2022/03/04 08:27:39;;;;;;;;;;;22.10;42.30;;;;;;5076077;28;20012;-44
2022/03/04 08:30:07;;;;;;;;;;;22.20;42.40;;;;;;5075672;28;19983;-46
2022/03/04 08:32:35;;;;;;;;;;;22.20;42.30;;;;;;5075188;28;20364;-48
2022/03/04 08:35:03;;;;;;;;;;;22.20;42.30;;;;;;5075437;28;19928;-46
2022/03/04 08:37:30;;;;;;;;;;;22.20;42.30;;;;;;5074760;28;20445;-44
2022/03/04 08:39:56;;;;;;;;;;;22.20;42.30;;;;;;5057961;28;19947;-43
2022/03/04 08:42:24;;;;;;;;;;;22.20;42.30;;;;;;5075459;28;19924;-45
2022/03/04 08:44:52;;;;;;;;;;;22.20;42.20;;;;;;5075711;28;20277;-47
2022/03/04 08:47:20;;;;;;;;;;;22.20;42.20;;;;;;5074857;28;19924;-43
2022/03/04 08:49:47;;;;;;;;;;;22.20;42.20;;;;;;5075293;28;19970;-45
2022/03/04 08:52:14;;;;;;;;;;;22.20;42.10;;;;;;5074608;28;19924;-45
2022/03/04 08:54:41;;;;;;;;;;;22.20;42.10;;;;;;5075228;28;19924;-45
2022/03/04 08:57:08;;;;;;;;;;;22.20;42.10;;;;;;5075419;28;20015;-44
2022/03/04 08:59:35;;;;;;;;;;;22.20;42.10;;;;;;5075107;28;19968;-44
2022/03/04 09:02:02;;;;;;;;;;;22.20;42.00;;;;;;5074579;28;20006;-47
2022/03/04 09:04:29;;;;;;;;;;;22.30;42.00;;;;;;5057342;28;20012;-45
2022/03/04 09:06:56;;;;;;;;;;;22.30;42.00;;;;;;5074508;28;19929;-47
2022/03/04 09:09:23;;;;;;;;;;;22.30;41.90;;;;;;5074794;28;20015;-47
2022/03/04 09:11:50;;;;;;;;;;;22.30;41.90;;;;;;5074788;28;19967;-46
2022/03/04 09:14:19;;;;;;;;;;;22.30;41.90;;;;;;5075152;28;19971;-43
2022/03/04 09:16:46;;;;;;;;;;;22.30;42.00;;;;;;5073921;28;20410;-44
2022/03/04 09:19:14;;;;;;;;;;;22.30;41.90;;;;;;5074945;28;20003;-46
2022/03/04 09:21:41;;;;;;;;;;;22.40;41.90;;;;;;5073896;28;19970;-45
2022/03/04 09:24:08;;;;;;;;;;;22.40;41.90;;;;;;5074455;28;19950;-47
2022/03/04 09:26:35;;;;;;;;;;;22.30;41.70;;;;;;5074541;28;19924;-45
2022/03/04 09:29:02;;;;;;;;;;;22.40;41.80;;;;;;5074421;28;19935;-49
2022/03/04 09:31:29;;;;;;;;;;;22.40;41.70;;;;;;5073717;28;19924;-49
2022/03/04 09:33:56;;;;;;;;;;;22.40;41.70;;;;;;5074298;28;20442;-46
2022/03/04 09:36:23;;;;;;;;;;;22.40;41.70;;;;;;5074625;28;19947;-44
2022/03/04 09:38:50;;;;;;;;;;;22.40;41.70;;;;;;5073435;28;20050;-45
2022/03/04 09:41:18;;;;;;;;;;;22.40;41.60;;;;;;5074294;28;19978;-44
2022/03/04 09:43:51;;;;;;;;;;;22.50;41.70;;;;;;5074602;28;19950;-45
2022/03/04 09:46:20;;;;;;;;;;;22.50;41.70;;;;;;5074479;28;20288;-46
2022/03/04 09:48:52;;;;;;;;;;;22.50;41.70;;;;;;5073579;28;20307;-48
2022/03/04 09:51:20;;;;;;;;;;;22.50;41.60;;;;;;5073927;28;19970;-48
2022/03/04 09:53:47;;;;;;;;;;;22.50;41.60;;;;;;5073288;28;19978;-49
2022/03/04 09:56:14;;;;;;;;;;;22.50;41.60;;;;;;5074208;28;19924;-45
2022/03/04 09:58:41;;;;;;;;;;;22.50;41.60;;;;;;5074293;28;19924;-50
2022/03/04 10:01:09;;;;;;;;;;;22.50;41.60;;;;;;5074231;28;19959;-48
2022/03/04 10:03:39;;;;;;;;;;;22.50;41.60;;;;;;5073122;28;19924;-48
2022/03/04 10:06:06;;;;;;;;;;;22.50;41.50;;;;;;5073816;28;19924;-48
2022/03/04 10:08:41;;;;;;;;;;;22.60;41.60;;;;;;5072922;28;19925;-49
2022/03/04 10:11:09;;;;;;;;;;;22.60;41.60;;;;;;5074146;28;19924;-44
2022/03/04 10:13:45;;;;;;;;;;;22.60;41.50;;;;;;5074031;28;19978;-49
2022/03/04 10:16:13;;;;;;;;;;;22.60;41.50;;;;;;5073907;28;19971;-48
2022/03/04 10:18:40;;;;;;;;;;;22.60;41.50;;;;;;5072936;28;19933;-48
2022/03/04 10:21:07;;;;;;;;;;;22.70;41.60;;;;;;5073297;28;19975;-50
2022/03/04 10:23:34;;;;;;;;;;;22.70;41.50;;;;;;5073179;28;19928;-44
2022/03/04 10:26:02;;;;;;;;;;;22.70;41.50;;;;;;5073934;28;19924;-48
2022/03/04 10:28:30;;;;;;;;;;;22.70;41.50;;;;;;5073871;28;20339;-52
2022/03/04 10:30:58;;;;;;;;;;;22.70;41.50;;;;;;5073547;28;19971;-44
2022/03/04 10:33:45;;;;;;;;;;;22.70;41.50;;;;;;5058005;28;20024;-44
2022/03/04 10:36:13;;;;;;;;;;;22.70;41.40;;;;;;5053357;28;20333;-44
2022/03/04 10:38:41;;;;;;;;;;;22.70;41.50;;;;;;5062645;28;19924;-43
2022/03/04 10:41:33;;;;;;;;;;;22.70;41.40;;;;;;5073444;28;19925;-46
2022/03/04 10:44:01;;;;;;;;;;;22.70;41.50;;;;;;5073395;28;20376;-46
2022/03/04 10:46:48;;;;;;;;;;;22.80;41.50;;;;;;5073166;28;20011;-43
2022/03/04 10:49:23;;;;;;;;;;;22.80;41.60;;;;;;5055097;28;20460;-45
2022/03/04 10:51:50;;;;;;;;;;;22.80;41.50;;;;;;5053084;28;19951;-43
2022/03/04 10:54:18;;;;;;;;;;;22.80;41.50;;;;;;5066515;28;19950;-49
2022/03/04 10:56:48;;;;;;;;;;;22.80;41.50;;;;;;5073502;28;20326;-49
2022/03/04 10:59:15;;;;;;;;;;;22.80;41.50;;;;;;5073556;28;20326;-49
2022/03/04 11:01:49;;;;;;;;;;;22.80;41.50;;;;;;5073203;28;19967;-50
2022/03/04 11:04:18;;;;;;;;;;;22.80;41.40;;;;;;5072981;28;19925;-48
2022/03/04 11:06:46;;;;;;;;;;;22.80;41.40;;;;;;5073470;28;19924;-50
2022/03/04 11:09:14;;;;;;;;;;;22.80;41.40;;;;;;5072252;28;19929;-50
2022/03/04 11:11:43;;;;;;;;;;;22.80;41.40;;;;;;5073130;28;20007;-52
2022/03/04 11:14:14;;;;;;;;;;;22.90;41.50;;;;;;5073096;28;19924;-47
2022/03/04 11:16:41;;;;;;;;;;;22.90;41.50;;;;;;5073413;28;19960;-46
2022/03/04 11:19:09;;;;;;;;;;;22.90;41.50;;;;;;5072319;28;20396;-48
2022/03/04 11:21:36;;;;;;;;;;;22.90;41.50;;;;;;5072720;28;20010;-44
2022/03/04 11:24:03;;;;;;;;;;;22.90;41.50;;;;;;5072493;28;20090;-43
2022/03/04 11:26:31;;;;;;;;;;;22.90;41.40;;;;;;5073298;28;20017;-45
2022/03/04 11:29:00;;;;;;;;;;;22.90;41.40;;;;;;5073163;28;19970;-45
2022/03/04 11:31:28;;;;;;;;;;;22.90;41.40;;;;;;5072854;28;20426;-46
2022/03/04 11:33:58;;;;;;;;;;;22.90;41.40;;;;;;5072730;28;20323;-47
2022/03/04 11:36:26;;;;;;;;;;;22.90;41.40;;;;;;5072967;28;20265;-48
2022/03/04 11:38:56;;;;;;;;;;;23.00;41.40;;;;;;5072225;28;19928;-45
2022/03/04 11:41:25;;;;;;;;;;;23.00;41.40;;;;;;5073092;28;19963;-46
2022/03/04 11:44:12;;;;;;;;;;;23.00;41.40;;;;;;5072847;28;19929;-45
2022/03/04 11:46:42;;;;;;;;;;;23.00;41.30;;;;;;5072730;28;19924;-45
2022/03/04 11:49:21;;;;;;;;;;;23.00;41.30;;;;;;5072381;28;20034;-45
2022/03/04 11:52:07;;;;;;;;;;;23.00;41.30;;;;;;5072878;28;20061;-47
2022/03/04 11:54:34;;;;;;;;;;;23.00;41.30;;;;;;5072288;28;19928;-49
2022/03/04 11:57:18;;;;;;;;;;;23.00;41.20;;;;;;5073253;28;19967;-51
2022/03/04 11:59:53;;;;;;;;;;;23.00;41.20;;;;;;5076278;28;20016;-45
2022/03/04 12:02:21;;;;;;;;;;;23.00;41.20;;;;;;5076502;28;20342;-48
2022/03/04 12:05:09;;;;;;;;;;;23.00;41.20;;;;;;5075174;28;19925;-46
2022/03/04 12:07:36;;;;;;;;;;;23.00;41.20;;;;;;5076699;28;19925;-45
2022/03/04 12:10:07;;;;;;;;;;;23.10;41.30;;;;;;5075264;28;19962;-45
2022/03/04 12:12:34;;;;;;;;;;;23.10;41.30;;;;;;5076067;28;19925;-45
2022/03/04 12:15:16;;;;;;;;;;;23.10;41.20;;;;;;5076004;28;19967;-43
2022/03/04 12:17:54;;;;;;;;;;;23.10;41.20;;;;;;5076125;28;20339;-50
2022/03/04 12:20:39;;;;;;;;;;;23.10;41.20;;;;;;5074952;28;19974;-43
2022/03/04 12:23:10;;;;;;;;;;;23.10;41.20;;;;;;5075917;28;19956;-46
2022/03/04 12:25:56;;;;;;;;;;;23.10;41.20;;;;;;5075378;28;19960;-43
2022/03/04 12:28:32;;;;;;;;;;;23.10;41.20;;;;;;5076005;28;19954;-46
2022/03/04 12:31:00;;;;;;;;;;;23.10;41.20;;;;;;5076002;28;19931;-46
2022/03/04 12:33:32;;;;;;;;;;;23.10;41.20;;;;;;5075243;28;19948;-46
2022/03/04 12:35:59;;;;;;;;;;;23.10;41.10;;;;;;5076323;28;19971;-47
2022/03/04 12:38:31;;;;;;;;;;;23.10;41.10;;;;;;5075452;28;19975;-48
2022/03/04 12:40:58;;;;;;;;;;;23.10;41.10;;;;;;5074750;28;19928;-45
2022/03/04 12:43:25;;;;;;;;;;;23.20;41.10;;;;;;5076553;28;19970;-51
2022/03/04 12:45:52;;;;;;;;;;;23.20;41.10;;;;;;5075402;28;19925;-50
2022/03/04 12:48:20;;;;;;;;;;;23.20;41.10;;;;;;5075701;28;20352;-48
2022/03/04 12:50:47;;;;;;;;;;;23.20;41.10;;;;;;5074566;28;19972;-44
2022/03/04 12:53:18;;;;;;;;;;;23.20;41.00;;;;;;5075065;28;19928;-44
2022/03/04 12:56:03;;;;;;;;;;;23.20;41.00;;;;;;5074716;28;20299;-44
2022/03/04 12:58:33;;;;;;;;;;;23.20;41.00;;;;;;5075488;28;20019;-46
2022/03/04 13:01:02;;;;;;;;;;;23.20;41.00;;;;;;5075382;28;19974;-43
2022/03/04 13:03:31;;;;;;;;;;;23.30;41.00;;;;;;5075050;28;19931;-45
2022/03/04 13:06:00;;;;;;;;;;;23.30;41.00;;;;;;5074664;28;19925;-45
2022/03/04 13:08:27;;;;;;;;;;;23.30;41.00;;;;;;5074688;28;19970;-45
2022/03/04 13:10:54;;;;;;;;;;;23.30;40.90;;;;;;5056429;28;19978;-45
2022/03/04 13:13:22;;;;;;;;;;;23.30;40.90;;;;;;5075159;28;20299;-43
2022/03/04 13:15:53;;;;;;;;;;;23.30;40.90;;;;;;5075093;28;20320;-44
2022/03/04 13:18:20;;;;;;;;;;;23.30;40.90;;;;;;5074726;28;19924;-44
2022/03/04 13:21:00;;;;;;;;;;;23.30;40.90;;;;;;5057776;28;19978;-44
2022/03/04 13:23:27;;;;;;;;;;;23.40;40.90;;;;;;5054988;28;19924;-45
2022/03/04 13:25:55;;;;;;;;;;;23.40;40.90;;;;;;5050160;28;19978;-43
2022/03/04 13:28:22;;;;;;;;;;;23.40;40.90;;;;;;5057340;28;19925;-44
2022/03/04 13:30:50;;;;;;;;;;;23.40;40.80;;;;;;5074477;28;19928;-46
2022/03/04 13:33:17;;;;;;;;;;;23.40;40.80;;;;;;5074766;28;19925;-46
2022/03/04 13:35:48;;;;;;;;;;;23.50;40.90;;;;;;5073479;28;19990;-44
2022/03/04 13:38:22;;;;;;;;;;;23.50;40.80;;;;;;5074049;28;19924;-46
2022/03/04 13:40:49;;;;;;;;;;;23.50;40.80;;;;;;5073408;28;19974;-44
2022/03/04 13:43:26;;;;;;;;;;;23.50;40.80;;;;;;5074137;28;19963;-43
2022/03/04 13:45:55;;;;;;;;;;;23.50;40.80;;;;;;5075037;28;19929;-44
2022/03/04 13:48:23;;;;;;;;;;;23.50;40.70;;;;;;5082565;28;19928;-47
2022/03/04 13:50:51;;;;;;;;;;;23.50;40.70;;;;;;5063515;28;19964;-46
2022/03/04 13:53:21;;;;;;;;;;;23.50;40.70;;;;;;5092333;28;20440;-45
2022/03/04 13:55:51;;;;;;;;;;;23.50;40.70;;;;;;5069068;28;20395;-45
2022/03/04 13:58:19;;;;;;;;;;;23.50;40.50;;;;;;5095001;28;20462;-48
2022/03/04 14:00:48;;;;;;;;;;;23.50;41.00;;;;;;5094198;28;19924;-48
2022/03/04 14:03:17;;;;;;;;;;;23.50;40.30;;;;;;5094181;28;20452;-48
2022/03/04 14:05:45;;;;;;;;;;;23.50;40.10;;;;;;5077935;28;20014;-43
2022/03/04 14:08:18;;;;;;;;;;;23.50;40.00;;;;;;5074116;28;19925;-45
2022/03/04 14:10:46;;;;;;;;;;;23.60;40.00;;;;;;5072271;28;19924;-50
2022/03/04 14:13:14;;;;;;;;;;;23.50;39.80;;;;;;5073736;28;19931;-47
2022/03/04 14:15:42;;;;;;;;;;;23.60;39.80;;;;;;5073496;28;19990;-52
2022/03/04 14:18:11;;;;;;;;;;;23.50;39.70;;;;;;5064898;28;19976;-47
2022/03/04 14:20:38;;;;;;;;;;;23.60;39.70;;;;;;5060811;28;19925;-48
2022/03/04 14:23:06;;;;;;;;;;;23.50;39.50;;;;;;5073366;28;19931;-46